TimeEDT,TemperatureF,Dew PointF,Humidity,Sea Level PressureIn,VisibilityMPH,Wind Direction,Wind SpeedMPH,Gust SpeedMPH,PrecipitationIn,Events,Conditions,WindDirDegrees,DateUTC
12:53 AM,77.0,73.0,88,30.13,10.0,North,-9999.0,-,N/A,,Clear,0,2013-07-07 04:53:00
1:53 AM,75.9,73.0,91,30.13,10.0,North,-9999.0,-,N/A,,Clear,0,2013-07-07 05:53:00
2:53 AM,75.9,72.0,87,30.12,10.0,North,-9999.0,-,N/A,,Clear,0,2013-07-07 06:53:00
3:53 AM,73.9,72.0,93,30.10,10.0,North,-9999.0,-,N/A,,Clear,0,2013-07-07 07:53:00
4:53 AM,73.9,71.1,91,30.10,8.0,North,-9999.0,-,N/A,,Clear,0,2013-07-07 08:53:00
5:28 AM,73.4,71.6,94,30.11,7.0,ENE,4.6,-,N/A,,Mostly Cloudy,70,2013-07-07 09:28:00
5:40 AM,73.4,71.6,94,30.11,7.0,ENE,4.6,-,N/A,,Scattered Clouds,70,2013-07-07 09:40:00
5:51 AM,73.4,71.6,94,30.11,7.0,ENE,4.6,-,N/A,,Mostly Cloudy,70,2013-07-07 09:51:00
5:53 AM,73.0,71.1,93,30.10,7.0,ENE,4.6,-,N/A,,Mostly Cloudy,70,2013-07-07 09:53:00
6:53 AM,73.0,71.1,93,30.12,2.5,East,4.6,-,N/A,,Overcast,80,2013-07-07 10:53:00
7:01 AM,73.4,71.6,94,30.12,3.0,ENE,4.6,-,N/A,,Mostly Cloudy,60,2013-07-07 11:01:00
7:19 AM,73.4,73.4,100,30.13,7.0,ENE,4.6,-,N/A,,Scattered Clouds,60,2013-07-07 11:19:00
7:32 AM,75.2,73.4,94,30.13,7.0,ENE,4.6,-,N/A,,Mostly Cloudy,60,2013-07-07 11:32:00
7:53 AM,75.9,73.0,91,30.13,9.0,ENE,4.6,-,N/A,,Mostly Cloudy,60,2013-07-07 11:53:00
8:07 AM,77.0,73.4,89,30.14,10.0,East,4.6,-,N/A,,Partly Cloudy,90,2013-07-07 12:07:00
8:53 AM,80.1,73.9,81,30.14,10.0,East,4.6,-,N/A,,Partly Cloudy,90,2013-07-07 12:53:00
9:53 AM,82.9,73.0,72,30.14,10.0,SE,11.5,-,N/A,,Partly Cloudy,130,2013-07-07 13:53:00
10:38 AM,86.0,73.4,66,30.16,10.0,SE,9.2,-,N/A,,Mostly Cloudy,130,2013-07-07 14:38:00
10:53 AM,84.9,73.0,67,30.15,10.0,SE,9.2,-,N/A,,Mostly Cloudy,130,2013-07-07 14:53:00
11:04 AM,84.2,71.6,66,30.16,10.0,North,-9999.0,-,N/A,,Mostly Cloudy,0,2013-07-07 15:04:00
11:53 AM,87.1,72.0,61,30.15,10.0,SE,9.2,-,N/A,,Scattered Clouds,130,2013-07-07 15:53:00
12:53 PM,87.1,71.1,59,30.14,10.0,SE,9.2,-,N/A,,Mostly Cloudy,140,2013-07-07 16:53:00
1:53 PM,90.0,68.0,48,30.12,10.0,SE,4.6,-,N/A,,Partly Cloudy,140,2013-07-07 17:53:00
2:53 PM,91.9,66.9,44,30.10,10.0,SE,6.9,-,N/A,,Scattered Clouds,140,2013-07-07 18:53:00
3:53 PM,90.0,68.0,48,30.08,10.0,SE,6.9,-,N/A,,Partly Cloudy,140,2013-07-07 19:53:00
4:53 PM,90.0,68.0,48,30.06,10.0,East,9.2,-,N/A,,Partly Cloudy,100,2013-07-07 20:53:00
5:23 PM,91.4,69.8,49,30.07,10.0,North,-9999.0,-,N/A,,Scattered Clouds,0,2013-07-07 21:23:00
5:53 PM,88.0,70.0,55,30.07,10.0,ESE,10.4,-,N/A,,Mostly Cloudy,110,2013-07-07 21:53:00
6:53 PM,84.0,72.0,67,30.07,10.0,ESE,8.1,-,N/A,,Overcast,120,2013-07-07 22:53:00
7:53 PM,84.0,73.0,69,30.08,10.0,North,-9999.0,-,N/A,,Mostly Cloudy,0,2013-07-07 23:53:00
8:53 PM,-9999,-9999,N/A,30.12,-9999.0,North,-9999.0,-,N/A,,Unknown,0,2013-07-08 00:53:00
9:53 PM,77.0,69.8,78,30.14,10.0,East,5.8,-,N/A,,Mostly Cloudy,80,2013-07-08 01:53:00
10:53 PM,77.0,71.6,83,30.14,10.0,East,4.6,-,N/A,,Mostly Cloudy,90,2013-07-08 02:53:00
11:53 PM,75.2,71.6,89,30.15,10.0,East,5.8,-,N/A,,Clear,80,2013-07-08 03:53:00